Time;durP1;ratioP1;P1;durP2;ratioP2;P2;SDS_P1;SDS_P2;PMS_P1;PMS_P2;Temp;Humidity;BMP_temperature;BMP_pressure;BME280_temperature;BME280_humidity;BME280_pressure;Samples;Min_cycle;Max_cycle;Signal;HPM_P1;HPM_P2
2023/12/31 00:00:34;;;;;;;11.37;4.30;;;;;;;;;;5064446;28;20016;-59
2023/12/31 00:02:59;;;;;;;12.25;3.80;;;;;;;;;;5070502;28;20539;-59
2023/12/31 00:05:24;;;;;;;10.43;3.50;;;;;;;;;;5075357;28;20025;-59
2023/12/31 00:07:49;;;;;;;8.53;3.57;;;;;;;;;;5065425;28;21015;-59
2023/12/31 00:10:15;;;;;;;9.63;3.77;;;;;;;;;;5079463;28;20146;-59
2023/12/31 00:12:40;;;;;;;9.27;4.00;;;;;;;;;;5069500;28;20032;-59
2023/12/31 00:15:05;;;;;;;10.93;4.00;;;;;;;;;;5071547;28;20104;-59
2023/12/31 00:17:30;;;;;;;11.33;4.10;;;;;;;;;;5068076;28;20029;-59
2023/12/31 00:19:55;;;;;;;11.48;4.30;;;;;;;;;;5076398;28;20066;-59
2023/12/31 00:22:21;;;;;;;12.40;4.83;;;;;;;;;;5071492;28;20032;-59
2023/12/31 00:24:46;;;;;;;11.43;4.90;;;;;;;;;;5071247;28;20377;-58
2023/12/31 00:27:11;;;;;;;11.27;4.53;;;;;;;;;;5063572;28;20025;-58
2023/12/31 00:29:36;;;;;;;10.43;4.85;;;;;;;;;;5071974;28;20103;-59
2023/12/31 00:32:01;;;;;;;11.25;3.92;;;;;;;;;;5071709;28;20453;-59
2023/12/31 00:34:27;;;;;;;10.37;4.07;;;;;;;;;;5065299;28;20086;-60
2023/12/31 00:36:52;;;;;;;11.93;3.93;;;;;;;;;;5069329;28;20027;-59
2023/12/31 00:39:17;;;;;;;10.88;3.75;;;;;;;;;;5068839;28;20020;-59
2023/12/31 00:41:42;;;;;;;8.10;3.28;;;;;;;;;;5051683;28;20032;-59
2023/12/31 00:44:08;;;;;;;9.00;3.57;;;;;;;;;;5065585;28;20039;-59
2023/12/31 00:46:33;;;;;;;9.77;3.53;;;;;;;;;;5071553;28;20069;-59
2023/12/31 00:48:58;;;;;;;9.25;3.30;;;;;;;;;;5070270;28;20020;-58
2023/12/31 00:51:23;;;;;;;10.40;3.10;;;;;;;;;;5060256;28;20107;-59
2023/12/31 00:53:49;;;;;;;9.10;3.05;;;;;;;;;;5067698;28;20096;-59
2023/12/31 00:56:14;;;;;;;6.53;3.00;;;;;;;;;;5072564;28;20028;-58
2023/12/31 00:58:39;;;;;;;7.85;2.90;;;;;;;;;;5063878;28;20035;-59
2023/12/31 01:01:04;;;;;;;8.30;3.50;;;;;;;;;;5062209;28;20032;-59
2023/12/31 01:03:29;;;;;;;9.75;3.30;;;;;;;;;;5069159;28;20031;-59
2023/12/31 01:05:55;;;;;;;7.53;2.97;;;;;;;;;;5071141;28;20108;-59
2023/12/31 01:08:20;;;;;;;9.27;3.03;;;;;;;;;;5067670;28;20013;-59
2023/12/31 01:10:45;;;;;;;7.88;3.13;;;;;;;;;;5069394;28;20031;-59
2023/12/31 01:13:11;;;;;;;8.20;3.10;;;;;;;;;;5068742;28;20036;-58
2023/12/31 01:15:36;;;;;;;8.33;2.90;;;;;;;;;;5070154;28;20032;-59
2023/12/31 01:18:01;;;;;;;10.80;3.33;;;;;;;;;;5071101;28;20537;-58
2023/12/31 01:20:26;;;;;;;6.83;2.93;;;;;;;;;;5069832;28;20465;-59
2023/12/31 01:22:51;;;;;;;10.60;3.03;;;;;;;;;;5066082;28;20122;-59
2023/12/31 01:25:16;;;;;;;8.95;2.92;;;;;;;;;;5073012;28;20033;-59
2023/12/31 01:27:42;;;;;;;11.10;3.50;;;;;;;;;;5075131;28;20427;-59
2023/12/31 01:30:07;;;;;;;9.23;2.90;;;;;;;;;;5072071;28;20048;-58
2023/12/31 01:32:32;;;;;;;7.88;2.63;;;;;;;;;;5064714;28;20150;-59
2023/12/31 01:34:59;;;;;;;8.93;3.00;;;;;;;;;;5070623;28;20021;-58
2023/12/31 01:37:24;;;;;;;8.02;3.20;;;;;;;;;;5068539;28;20016;-59
2023/12/31 01:39:49;;;;;;;9.10;2.60;;;;;;;;;;5065643;28;20028;-59
2023/12/31 01:42:15;;;;;;;7.18;2.90;;;;;;;;;;5061721;28;20017;-59
2023/12/31 01:44:40;;;;;;;8.65;3.00;;;;;;;;;;5069961;28;20032;-59
2023/12/31 01:47:05;;;;;;;8.75;3.03;;;;;;;;;;5070725;28;20032;-59
2023/12/31 01:49:31;;;;;;;9.18;3.20;;;;;;;;;;5059322;28;20428;-59
2023/12/31 01:51:57;;;;;;;10.55;2.92;;;;;;;;;;5065441;28;20032;-60
2023/12/31 01:54:22;;;;;;;6.97;2.67;;;;;;;;;;5067661;28;20021;-60
2023/12/31 01:56:50;;;;;;;8.47;3.10;;;;;;;;;;5065794;28;20025;-59
2023/12/31 01:59:15;;;;;;;10.60;3.53;;;;;;;;;;5067574;28;20608;-59
2023/12/31 02:01:40;;;;;;;7.60;3.07;;;;;;;;;;5065095;28;20046;-59
2023/12/31 02:04:06;;;;;;;9.02;2.92;;;;;;;;;;5067224;28;20074;-59
2023/12/31 02:06:31;;;;;;;8.75;3.13;;;;;;;;;;5071083;28;20099;-58
2023/12/31 02:08:56;;;;;;;10.60;3.30;;;;;;;;;;5067517;28;20051;-58
2023/12/31 02:11:22;;;;;;;9.68;3.47;;;;;;;;;;5070783;28;20013;-59
2023/12/31 02:13:47;;;;;;;10.90;3.40;;;;;;;;;;5071869;28;20039;-59
2023/12/31 02:16:13;;;;;;;9.80;3.47;;;;;;;;;;5076523;28;20017;-58
2023/12/31 02:18:38;;;;;;;12.60;3.75;;;;;;;;;;5076151;28;20093;-59
2023/12/31 02:21:04;;;;;;;8.93;3.55;;;;;;;;;;5087150;28;20013;-59
2023/12/31 02:23:29;;;;;;;11.63;4.15;;;;;;;;;;5080756;28;20488;-59
2023/12/31 02:26:08;;;;;;;7.60;3.10;;;;;;;;;;5072659;28;20028;-59
2023/12/31 02:28:33;;;;;;;13.10;3.55;;;;;;;;;;5069823;28;20488;-59
2023/12/31 02:30:58;;;;;;;7.30;3.17;;;;;;;;;;5071148;28;20056;-58
2023/12/31 02:33:23;;;;;;;11.73;3.35;;;;;;;;;;5064315;28;20473;-58
2023/12/31 02:35:48;;;;;;;9.77;3.35;;;;;;;;;;5073377;28;20103;-58
2023/12/31 02:38:13;;;;;;;8.37;3.43;;;;;;;;;;5071934;28;20028;-58
2023/12/31 02:40:38;;;;;;;10.85;3.08;;;;;;;;;;5057859;28;20103;-57
2023/12/31 02:43:04;;;;;;;8.93;3.00;;;;;;;;;;5057603;28;20087;-60
2023/12/31 02:45:29;;;;;;;10.10;3.55;;;;;;;;;;5068101;28;20019;-60
2023/12/31 02:47:54;;;;;;;9.70;4.07;;;;;;;;;;5069060;28;20044;-59
2023/12/31 02:50:19;;;;;;;9.25;3.50;;;;;;;;;;5069940;28;20086;-59
2023/12/31 02:52:44;;;;;;;7.70;3.38;;;;;;;;;;5061705;28;20029;-58
2023/12/31 02:55:09;;;;;;;10.70;3.60;;;;;;;;;;5070490;28;20043;-58
2023/12/31 02:57:35;;;;;;;11.07;3.47;;;;;;;;;;5061440;28;20021;-59
2023/12/31 03:00:00;;;;;;;10.80;3.63;;;;;;;;;;5066314;28;20086;-59
2023/12/31 03:02:25;;;;;;;9.00;3.47;;;;;;;;;;5056058;28;20023;-59
2023/12/31 03:04:50;;;;;;;8.83;3.17;;;;;;;;;;5071881;28;20793;-59
2023/12/31 03:07:15;;;;;;;10.93;3.83;;;;;;;;;;5071001;28;20027;-58
2023/12/31 03:09:41;;;;;;;11.17;4.00;;;;;;;;;;5061311;28;20388;-58
2023/12/31 03:12:06;;;;;;;11.52;3.78;;;;;;;;;;5059637;28;20631;-59
2023/12/31 03:14:31;;;;;;;9.80;4.07;;;;;;;;;;5066906;28;20058;-59
2023/12/31 03:16:57;;;;;;;8.43;3.50;;;;;;;;;;5068171;28;20156;-59
2023/12/31 03:19:22;;;;;;;10.00;4.00;;;;;;;;;;5069755;28;20016;-60
2023/12/31 03:21:48;;;;;;;9.10;3.30;;;;;;;;;;5060717;28;20021;-59
2023/12/31 03:24:13;;;;;;;9.35;3.25;;;;;;;;;;5066330;28;20028;-59
2023/12/31 03:26:39;;;;;;;9.30;3.47;;;;;;;;;;5071959;28;20025;-60
2023/12/31 03:29:04;;;;;;;9.30;3.58;;;;;;;;;;5076239;28;20028;-60
2023/12/31 03:31:29;;;;;;;9.57;3.80;;;;;;;;;;5069360;28;20032;-59
2023/12/31 03:33:54;;;;;;;8.43;3.25;;;;;;;;;;5068005;28;20024;-60
2023/12/31 03:36:24;;;;;;;10.07;3.40;;;;;;;;;;5070234;28;20504;-59
2023/12/31 03:38:49;;;;;;;11.23;3.58;;;;;;;;;;5064138;28;20020;-58
2023/12/31 03:41:14;;;;;;;9.05;3.30;;;;;;;;;;5072589;28;20082;-58
2023/12/31 03:43:39;;;;;;;8.55;3.55;;;;;;;;;;5061960;28;20016;-59
2023/12/31 03:46:05;;;;;;;8.32;3.20;;;;;;;;;;5063862;28;20023;-57
2023/12/31 03:48:30;;;;;;;8.57;3.47;;;;;;;;;;5068353;28;20507;-60
2023/12/31 03:50:55;;;;;;;9.93;3.83;;;;;;;;;;5061418;28;20038;-58
2023/12/31 03:53:20;;;;;;;12.88;3.83;;;;;;;;;;5068529;28;20056;-60
2023/12/31 03:55:46;;;;;;;10.07;3.58;;;;;;;;;;5069951;28;20131;-60
2023/12/31 03:58:11;;;;;;;8.18;3.70;;;;;;;;;;5069309;28;20031;-59
2023/12/31 04:00:36;;;;;;;10.17;3.63;;;;;;;;;;5054891;28;20020;-58
2023/12/31 04:03:01;;;;;;;9.18;3.45;;;;;;;;;;5067409;28;20025;-57
2023/12/31 04:05:27;;;;;;;8.90;3.53;;;;;;;;;;5064785;28;20476;-60
2023/12/31 04:07:52;;;;;;;9.38;3.78;;;;;;;;;;5071899;28;20066;-59
2023/12/31 04:10:17;;;;;;;11.13;3.38;;;;;;;;;;5072259;28;20019;-59
2023/12/31 04:12:43;;;;;;;10.80;3.50;;;;;;;;;;5072852;28;20488;-59
2023/12/31 04:15:08;;;;;;;8.73;3.40;;;;;;;;;;5069743;28;20526;-59
2023/12/31 04:17:37;;;;;;;10.50;3.80;;;;;;;;;;5063464;28;20112;-59
2023/12/31 04:20:02;;;;;;;9.32;4.03;;;;;;;;;;5072646;28;20504;-59
2023/12/31 04:22:28;;;;;;;8.98;3.40;;;;;;;;;;5068841;28;20099;-58
2023/12/31 04:24:53;;;;;;;11.18;3.70;;;;;;;;;;5065939;28;20508;-58
2023/12/31 04:27:18;;;;;;;11.43;3.97;;;;;;;;;;5064979;28;20120;-59
2023/12/31 04:29:43;;;;;;;9.52;3.83;;;;;;;;;;5072371;28;20503;-59
2023/12/31 04:32:09;;;;;;;9.10;3.50;;;;;;;;;;5070055;28;20064;-58
2023/12/31 04:34:34;;;;;;;8.40;4.10;;;;;;;;;;5064130;28;20017;-59
2023/12/31 04:36:59;;;;;;;8.95;3.50;;;;;;;;;;5067048;28;20028;-59
2023/12/31 04:39:24;;;;;;;9.23;3.55;;;;;;;;;;5073757;28;20028;-57
2023/12/31 04:41:49;;;;;;;8.63;3.50;;;;;;;;;;5070287;28;20480;-58
2023/12/31 04:44:14;;;;;;;9.47;3.40;;;;;;;;;;5067569;28;20029;-59
2023/12/31 04:46:40;;;;;;;9.73;3.45;;;;;;;;;;5068278;28;20029;-59
2023/12/31 04:49:05;;;;;;;10.03;3.60;;;;;;;;;;5073845;28;20021;-59
2023/12/31 04:51:30;;;;;;;8.68;3.67;;;;;;;;;;5072991;28;20462;-59
2023/12/31 04:53:56;;;;;;;9.82;3.78;;;;;;;;;;5066844;28;20036;-59
2023/12/31 04:56:22;;;;;;;8.90;3.53;;;;;;;;;;5080112;28;20051;-59
2023/12/31 04:58:49;;;;;;;8.07;3.40;;;;;;;;;;5068270;28;20040;-59
2023/12/31 05:01:14;;;;;;;10.07;3.50;;;;;;;;;;5073719;28;20012;-59
2023/12/31 05:03:39;;;;;;;9.37;3.27;;;;;;;;;;5085611;28;20032;-59
2023/12/31 05:06:04;;;;;;;11.40;4.03;;;;;;;;;;5078124;28;20028;-59
2023/12/31 05:08:29;;;;;;;7.77;3.30;;;;;;;;;;5070678;28;20090;-58
2023/12/31 05:10:55;;;;;;;9.55;3.80;;;;;;;;;;5085611;28;20021;-58
2023/12/31 05:13:20;;;;;;;9.97;4.10;;;;;;;;;;5081888;28;20059;-59
2023/12/31 05:15:45;;;;;;;9.85;3.80;;;;;;;;;;5076336;28;20020;-59
2023/12/31 05:18:10;;;;;;;8.93;3.42;;;;;;;;;;5083458;28;20107;-58
2023/12/31 05:20:35;;;;;;;8.85;3.78;;;;;;;;;;5080599;28;20036;-59
2023/12/31 05:23:00;;;;;;;7.82;3.22;;;;;;;;;;5068423;28;20029;-59
2023/12/31 05:25:25;;;;;;;8.57;3.30;;;;;;;;;;5066939;28;20033;-59
2023/12/31 05:27:50;;;;;;;8.90;3.15;;;;;;;;;;5064854;28;20059;-58
2023/12/31 05:30:16;;;;;;;8.45;3.08;;;;;;;;;;5073390;28;20452;-59
2023/12/31 05:32:41;;;;;;;10.00;3.90;;;;;;;;;;5071059;28;20036;-59
2023/12/31 05:35:06;;;;;;;9.18;3.15;;;;;;;;;;5062355;28;20059;-59
2023/12/31 05:37:32;;;;;;;6.73;2.63;;;;;;;;;;5062277;28;20021;-58
2023/12/31 05:39:57;;;;;;;8.90;3.00;;;;;;;;;;5071357;28;20430;-59
2023/12/31 05:42:22;;;;;;;7.95;2.65;;;;;;;;;;5065495;28;20040;-59
2023/12/31 05:44:48;;;;;;;7.13;2.67;;;;;;;;;;5068401;28;20031;-58
2023/12/31 05:47:13;;;;;;;7.43;2.42;;;;;;;;;;5059901;28;20546;-57
2023/12/31 05:49:38;;;;;;;8.80;2.97;;;;;;;;;;5068464;28;20108;-57
2023/12/31 05:52:05;;;;;;;8.35;2.83;;;;;;;;;;5068590;28;20159;-58
2023/12/31 05:54:30;;;;;;;;;;;;;;;;;;5067316;28;20013;-58
2023/12/31 05:56:55;;;;;;;8.07;2.67;;;;;;;;;;5066084;28;19909;-58
2023/12/31 05:59:20;;;;;;;7.25;2.50;;;;;;;;;;5062726;28;20544;-57
2023/12/31 06:01:45;;;;;;;9.32;2.65;;;;;;;;;;5070135;28;20025;-59
2023/12/31 06:04:11;;;;;;;7.05;2.55;;;;;;;;;;5068293;28;20077;-58
2023/12/31 06:06:36;;;;;;;8.87;2.50;;;;;;;;;;5069260;28;20108;-58
2023/12/31 06:09:01;;;;;;;7.93;2.60;;;;;;;;;;5068988;28;20028;-58
2023/12/31 06:11:27;;;;;;;8.52;2.95;;;;;;;;;;5069538;28;20082;-57
2023/12/31 06:13:52;;;;;;;10.43;3.00;;;;;;;;;;5073957;28;20028;-59
2023/12/31 06:16:17;;;;;;;6.87;2.57;;;;;;;;;;5066153;28;20524;-57
2023/12/31 06:18:42;;;;;;;9.63;2.95;;;;;;;;;;5064245;28;20376;-58
2023/12/31 06:21:07;;;;;;;6.40;2.90;;;;;;;;;;5067832;28;20385;-58
2023/12/31 06:23:32;;;;;;;6.83;3.00;;;;;;;;;;5069334;28;20036;-58
2023/12/31 06:25:58;;;;;;;8.93;3.37;;;;;;;;;;5062240;28;21013;-58
2023/12/31 06:28:23;;;;;;;8.05;2.92;;;;;;;;;;5061600;28;20107;-58
2023/12/31 06:30:48;;;;;;;9.30;3.20;;;;;;;;;;5070778;28;20472;-58
2023/12/31 06:33:14;;;;;;;9.47;3.40;;;;;;;;;;5067269;28;20036;-58
2023/12/31 06:35:39;;;;;;;7.95;3.15;;;;;;;;;;5068732;28;20032;-57
2023/12/31 06:38:04;;;;;;;10.18;3.20;;;;;;;;;;5061079;28;20489;-58
2023/12/31 06:40:30;;;;;;;8.13;3.20;;;;;;;;;;5068634;28;20025;-58
2023/12/31 06:42:55;;;;;;;9.52;3.28;;;;;;;;;;5059852;28;20021;-58
2023/12/31 06:45:20;;;;;;;9.52;3.50;;;;;;;;;;5062836;28;20082;-59
2023/12/31 06:47:45;;;;;;;8.85;3.17;;;;;;;;;;5054067;28;20037;-58
2023/12/31 06:50:11;;;;;;;7.68;3.53;;;;;;;;;;5070640;28;20034;-58
2023/12/31 06:52:36;;;;;;;13.32;3.83;;;;;;;;;;5056343;28;20032;-58
2023/12/31 06:55:01;;;;;;;9.20;3.45;;;;;;;;;;5061184;28;20027;-58
2023/12/31 06:57:26;;;;;;;11.60;3.90;;;;;;;;;;5067791;28;20515;-58
2023/12/31 06:59:52;;;;;;;9.07;3.50;;;;;;;;;;5064512;28;20073;-58
2023/12/31 07:02:17;;;;;;;10.30;3.65;;;;;;;;;;5059671;28;20055;-57
2023/12/31 07:04:42;;;;;;;8.07;3.50;;;;;;;;;;5060092;28;20039;-58
2023/12/31 07:07:08;;;;;;;8.90;3.43;;;;;;;;;;5061384;28;20036;-58
2023/12/31 07:09:33;;;;;;;10.00;3.53;;;;;;;;;;5059149;28;20009;-58
2023/12/31 07:12:00;;;;;;;7.57;3.40;;;;;;;;;;5059359;28;20021;-58
2023/12/31 07:14:26;;;;;;;10.27;3.67;;;;;;;;;;5059373;28;20032;-58
2023/12/31 07:16:51;;;;;;;9.18;3.40;;;;;;;;;;5068904;28;20024;-58
2023/12/31 07:19:17;;;;;;;8.13;3.40;;;;;;;;;;5066364;28;20025;-58
2023/12/31 07:21:43;;;;;;;10.05;3.72;;;;;;;;;;5074593;28;20496;-58
2023/12/31 07:24:08;;;;;;;10.93;3.83;;;;;;;;;;5069970;28;20089;-58
2023/12/31 07:26:33;;;;;;;9.75;3.67;;;;;;;;;;5078841;28;20012;-58
2023/12/31 07:28:58;;;;;;;10.03;3.63;;;;;;;;;;5064020;28;20013;-57
2023/12/31 07:31:24;;;;;;;9.38;3.63;;;;;;;;;;5071568;28;20021;-57
2023/12/31 07:33:50;;;;;;;9.00;3.67;;;;;;;;;;5080615;28;20020;-57
2023/12/31 07:36:15;;;;;;;9.43;3.67;;;;;;;;;;5069990;28;20016;-58
2023/12/31 07:38:42;;;;;;;8.97;4.10;;;;;;;;;;5070237;28;20029;-58
2023/12/31 07:41:10;;;;;;;10.90;4.13;;;;;;;;;;5074986;28;20981;-58
2023/12/31 07:43:35;;;;;;;8.77;3.60;;;;;;;;;;5075486;28;20028;-57
2023/12/31 07:46:00;;;;;;;9.85;3.75;;;;;;;;;;5066882;28;20393;-58
2023/12/31 07:48:25;;;;;;;9.85;3.80;;;;;;;;;;5067379;28;20115;-57
2023/12/31 07:50:50;;;;;;;8.20;3.67;;;;;;;;;;5066399;28;20056;-58
2023/12/31 07:53:15;;;;;;;7.63;3.45;;;;;;;;;;5068454;28;20488;-58
2023/12/31 07:55:41;;;;;;;10.32;3.60;;;;;;;;;;5064373;28;20039;-60
2023/12/31 07:58:06;;;;;;;9.50;3.90;;;;;;;;;;5071821;28;20037;-59
2023/12/31 08:00:32;;;;;;;8.98;3.40;;;;;;;;;;5076572;28;20017;-58
2023/12/31 08:02:57;;;;;;;10.05;3.70;;;;;;;;;;5064644;28;20044;-59
2023/12/31 08:05:22;;;;;;;8.10;3.38;;;;;;;;;;5076960;28;20031;-59
2023/12/31 08:07:47;;;;;;;7.45;3.13;;;;;;;;;;5071247;28;20701;-60
2023/12/31 08:10:12;;;;;;;10.40;3.40;;;;;;;;;;5076256;28;20012;-59
2023/12/31 08:12:38;;;;;;;7.90;3.27;;;;;;;;;;5066591;28;20035;-59
2023/12/31 08:15:04;;;;;;;8.10;3.30;;;;;;;;;;5071905;28;20044;-59
2023/12/31 08:17:29;;;;;;;10.52;3.63;;;;;;;;;;5065127;28;20074;-58
2023/12/31 08:19:55;;;;;;;9.13;3.58;;;;;;;;;;5066662;28;20024;-58
2023/12/31 08:22:20;;;;;;;7.43;3.00;;;;;;;;;;5065429;28;20531;-58
2023/12/31 08:24:45;;;;;;;8.32;3.25;;;;;;;;;;5069633;28;20494;-59
2023/12/31 08:27:10;;;;;;;9.63;3.22;;;;;;;;;;5058244;28;20066;-58
2023/12/31 08:29:40;;;;;;;7.63;3.03;;;;;;;;;;5052726;28;20035;-58
2023/12/31 08:32:05;;;;;;;8.32;3.28;;;;;;;;;;5056144;28;20025;-58
2023/12/31 08:34:30;;;;;;;10.48;3.67;;;;;;;;;;5071252;28;20198;-58
2023/12/31 08:36:55;;;;;;;8.20;3.30;;;;;;;;;;5073000;28;20028;-58
2023/12/31 08:39:20;;;;;;;10.27;3.55;;;;;;;;;;5058826;28;20020;-58
2023/12/31 08:41:45;;;;;;;7.27;2.87;;;;;;;;;;5055564;28;20476;-58
2023/12/31 08:44:10;;;;;;;10.25;3.65;;;;;;;;;;5059411;28;20361;-58
2023/12/31 08:46:36;;;;;;;6.53;3.23;;;;;;;;;;5066009;28;20103;-58
2023/12/31 08:49:01;;;;;;;8.60;3.10;;;;;;;;;;5072253;28;20031;-58
2023/12/31 08:51:26;;;;;;;9.32;3.30;;;;;;;;;;5091061;28;20476;-57
2023/12/31 08:53:51;;;;;;;8.85;3.22;;;;;;;;;;5080974;28;20611;-59
2023/12/31 08:56:16;;;;;;;9.50;3.10;;;;;;;;;;5064541;28;20098;-56
2023/12/31 08:58:41;;;;;;;8.17;2.90;;;;;;;;;;5074476;28;20020;-60
2023/12/31 09:01:08;;;;;;;9.02;3.15;;;;;;;;;;5061756;28;20028;-60
2023/12/31 09:03:33;;;;;;;8.82;3.33;;;;;;;;;;5055939;28;20036;-59
2023/12/31 09:05:58;;;;;;;10.13;3.42;;;;;;;;;;5052961;28;20021;-59
2023/12/31 09:08:23;;;;;;;8.07;3.13;;;;;;;;;;5066565;28;20034;-59
2023/12/31 09:10:49;;;;;;;8.97;3.30;;;;;;;;;;5071830;28;20036;-59
2023/12/31 09:13:14;;;;;;;9.03;3.33;;;;;;;;;;5060383;28;20025;-59
2023/12/31 09:15:42;;;;;;;9.15;3.33;;;;;;;;;;5058805;28;20111;-59
2023/12/31 09:18:07;;;;;;;8.77;3.38;;;;;;;;;;5070081;28;20165;-60
2023/12/31 09:20:32;;;;;;;9.65;3.55;;;;;;;;;;5060353;28;20512;-59
2023/12/31 09:22:59;;;;;;;8.98;3.55;;;;;;;;;;5056302;28;20036;-59
2023/12/31 09:25:24;;;;;;;;;;;;;;;;;;5068065;28;20028;-58
2023/12/31 09:27:49;;;;;;;9.20;2.95;;;;;;;;;;5071863;28;19914;-58
2023/12/31 09:30:14;;;;;;;10.20;3.70;;;;;;;;;;5072030;28;20472;-59
2023/12/31 09:32:41;;;;;;;7.63;3.10;;;;;;;;;;5071139;28;20051;-59
2023/12/31 09:35:06;;;;;;;8.68;3.30;;;;;;;;;;5072172;28;20514;-58
2023/12/31 09:37:31;;;;;;;9.00;3.90;;;;;;;;;;5063482;28;20111;-58
2023/12/31 09:39:57;;;;;;;9.07;3.57;;;;;;;;;;5071622;28;20456;-60
2023/12/31 09:42:31;;;;;;;9.90;3.53;;;;;;;;;;5071222;28;20431;-60
2023/12/31 09:44:56;;;;;;;9.10;3.50;;;;;;;;;;5063419;28;20039;-60
2023/12/31 09:47:22;;;;;;;7.55;3.35;;;;;;;;;;5065335;28;20092;-59
2023/12/31 09:49:48;;;;;;;6.97;3.05;;;;;;;;;;5071427;28;20484;-59
2023/12/31 09:52:14;;;;;;;9.60;3.45;;;;;;;;;;5071150;28;20032;-59
2023/12/31 09:54:40;;;;;;;7.60;3.13;;;;;;;;;;5065944;28;20013;-63
2023/12/31 09:57:06;;;;;;;9.20;4.28;;;;;;;;;;5063435;28;20107;-60
2023/12/31 09:59:31;;;;;;;8.25;3.42;;;;;;;;;;5071250;28;20059;-60
2023/12/31 10:01:58;;;;;;;8.03;3.17;;;;;;;;;;5070488;28;20024;-60
2023/12/31 10:04:23;;;;;;;8.50;3.20;;;;;;;;;;5071107;28;20025;-60
2023/12/31 10:06:50;;;;;;;8.20;2.88;;;;;;;;;;5065288;28;20027;-58
2023/12/31 10:09:15;;;;;;;;;;;;;;;;;;5071478;28;20059;-60
2023/12/31 10:11:41;;;;;;;7.18;3.40;;;;;;;;;;5066795;28;20053;-60
2023/12/31 10:14:07;;;;;;;10.18;3.65;;;;;;;;;;5071037;28;20024;-60
2023/12/31 10:16:34;;;;;;;7.90;2.95;;;;;;;;;;5065081;28;20024;-59
2023/12/31 10:19:00;;;;;;;8.32;2.90;;;;;;;;;;5066486;28;20153;-60
2023/12/31 10:21:26;;;;;;;9.68;3.90;;;;;;;;;;5069553;28;20028;-59
2023/12/31 10:23:51;;;;;;;7.50;3.13;;;;;;;;;;5070309;28;20025;-59
2023/12/31 10:26:16;;;;;;;10.30;3.17;;;;;;;;;;5066451;28;20029;-60
2023/12/31 10:28:42;;;;;;;9.43;4.05;;;;;;;;;;5069998;28;20396;-58
2023/12/31 10:31:07;;;;;;;8.17;2.70;;;;;;;;;;5068867;28;20048;-61
2023/12/31 10:33:34;;;;;;;7.30;2.90;;;;;;;;;;5065161;28;20099;-58
2023/12/31 10:36:06;;;;;;;7.22;2.83;;;;;;;;;;5066560;28;20027;-58
2023/12/31 10:38:42;;;;;;;7.72;2.80;;;;;;;;;;5065211;28;20116;-59
2023/12/31 10:41:14;;;;;;;8.98;3.80;;;;;;;;;;5070398;28;20427;-59
2023/12/31 10:43:39;;;;;;;8.52;3.03;;;;;;;;;;5070581;28;20657;-59
2023/12/31 10:46:06;;;;;;;7.68;2.88;;;;;;;;;;5069678;28;20104;-58
2023/12/31 10:48:32;;;;;;;9.10;3.25;;;;;;;;;;5068371;28;20017;-60
2023/12/31 10:50:59;;;;;;;7.85;2.83;;;;;;;;;;5068626;28;20070;-61
2023/12/31 10:53:25;;;;;;;8.52;3.00;;;;;;;;;;5066957;28;20082;-59
2023/12/31 10:55:51;;;;;;;7.97;2.90;;;;;;;;;;5068312;28;20028;-58
2023/12/31 10:58:16;;;;;;;7.07;2.60;;;;;;;;;;5073852;28;20024;-60
2023/12/31 11:00:43;;;;;;;7.53;2.90;;;;;;;;;;5076929;28;20082;-58
2023/12/31 11:03:10;;;;;;;11.27;3.10;;;;;;;;;;5077918;28;20133;-58
2023/12/31 11:05:36;;;;;;;7.30;2.63;;;;;;;;;;5078569;28;20024;-59
2023/12/31 11:08:02;;;;;;;6.78;2.47;;;;;;;;;;5082231;28;20020;-59
2023/12/31 11:10:27;;;;;;;7.15;2.28;;;;;;;;;;5079138;28;20028;-60
2023/12/31 11:12:52;;;;;;;8.02;3.17;;;;;;;;;;5068376;28;20396;-59
2023/12/31 11:15:22;;;;;;;7.87;2.60;;;;;;;;;;5070917;28;20036;-60
2023/12/31 11:17:47;;;;;;;6.00;2.15;;;;;;;;;;5054669;28;20021;-59
2023/12/31 11:20:23;;;;;;;8.50;2.60;;;;;;;;;;5054175;28;20025;-59
2023/12/31 11:22:52;;;;;;;7.78;2.40;;;;;;;;;;5064699;28;20031;-58
2023/12/31 11:25:21;;;;;;;7.95;3.00;;;;;;;;;;5069506;28;20020;-58
2023/12/31 11:27:48;;;;;;;6.55;2.33;;;;;;;;;;5063000;28;20025;-60
2023/12/31 11:30:14;;;;;;;;;;;;;;;;;;5075047;28;20017;-60
2023/12/31 11:32:40;;;;;;;6.85;2.33;;;;;;;;;;5072189;28;19916;-59
2023/12/31 11:35:06;;;;;;;7.75;2.33;;;;;;;;;;5069816;28;20058;-60
2023/12/31 11:37:35;;;;;;;6.00;2.40;;;;;;;;;;5073845;28;20476;-60
2023/12/31 11:40:00;;;;;;;8.02;2.30;;;;;;;;;;5072370;28;20029;-60
2023/12/31 11:42:25;;;;;;;8.95;4.03;;;;;;;;;;5073436;28;20025;-58
2023/12/31 11:44:50;;;;;;;7.25;3.08;;;;;;;;;;5072551;28;20039;-59
2023/12/31 11:47:21;;;;;;;6.63;2.57;;;;;;;;;;5073745;28;20025;-60
2023/12/31 11:49:50;;;;;;;6.20;2.33;;;;;;;;;;5071760;28;20483;-57
2023/12/31 11:52:15;;;;;;;5.97;2.30;;;;;;;;;;5073399;28;20144;-59
2023/12/31 11:54:40;;;;;;;6.17;2.37;;;;;;;;;;5072408;28;20451;-60
2023/12/31 11:57:06;;;;;;;5.72;2.40;;;;;;;;;;5061522;28;20025;-59
2023/12/31 11:59:38;;;;;;;7.45;2.53;;;;;;;;;;5058770;28;20376;-60
2023/12/31 12:02:05;;;;;;;6.78;2.45;;;;;;;;;;5062365;28;20021;-60
2023/12/31 12:04:30;;;;;;;6.05;2.30;;;;;;;;;;5069700;28;20073;-60
2023/12/31 12:06:56;;;;;;;6.63;2.17;;;;;;;;;;5071100;28;20107;-59
2023/12/31 12:09:27;;;;;;;7.37;3.13;;;;;;;;;;5081386;28;20021;-58
2023/12/31 12:11:57;;;;;;;7.50;2.60;;;;;;;;;;5070591;28;20392;-60
2023/12/31 12:14:22;;;;;;;7.15;2.70;;;;;;;;;;5068246;28;20473;-59
2023/12/31 12:16:48;;;;;;;8.83;3.03;;;;;;;;;;5072051;28;20024;-59
2023/12/31 12:19:13;;;;;;;8.50;3.05;;;;;;;;;;5072878;28;20423;-58
2023/12/31 12:21:38;;;;;;;9.95;3.40;;;;;;;;;;5054535;28;20040;-60
2023/12/31 12:24:04;;;;;;;9.13;3.17;;;;;;;;;;5056737;28;20108;-57
2023/12/31 12:26:30;;;;;;;8.48;3.65;;;;;;;;;;5053180;28;20028;-57
2023/12/31 12:28:55;;;;;;;9.93;3.10;;;;;;;;;;5062393;28;20032;-59
2023/12/31 12:31:21;;;;;;;8.02;3.10;;;;;;;;;;5070356;28;20023;-59
2023/12/31 12:33:53;;;;;;;8.88;3.78;;;;;;;;;;5074707;28;20135;-59
2023/12/31 12:36:19;;;;;;;7.70;2.67;;;;;;;;;;5060987;28;20028;-60
2023/12/31 12:38:45;;;;;;;7.03;2.90;;;;;;;;;;5061817;28;20040;-59
2023/12/31 12:41:11;;;;;;;7.15;3.10;;;;;;;;;;5049333;28;20025;-60
2023/12/31 12:43:36;;;;;;;8.63;2.83;;;;;;;;;;5060220;28;20028;-59
2023/12/31 12:46:02;;;;;;;7.77;3.07;;;;;;;;;;5063636;28;20570;-59
2023/12/31 12:48:27;;;;;;;7.95;2.80;;;;;;;;;;5061143;28;20500;-59
2023/12/31 12:50:52;;;;;;;6.63;2.70;;;;;;;;;;5069120;28;20035;-57
2023/12/31 12:53:17;;;;;;;6.33;2.60;;;;;;;;;;5060068;28;20071;-60
2023/12/31 12:55:43;;;;;;;7.93;3.00;;;;;;;;;;5076985;28;20480;-59
2023/12/31 12:58:08;;;;;;;8.32;2.90;;;;;;;;;;5063935;28;20104;-59
2023/12/31 13:00:33;;;;;;;8.07;2.60;;;;;;;;;;5067332;28;20659;-58
2023/12/31 13:02:58;;;;;;;6.90;2.63;;;;;;;;;;5068913;28;20031;-59
2023/12/31 13:05:23;;;;;;;6.95;2.65;;;;;;;;;;5067555;28;20048;-60
2023/12/31 13:07:49;;;;;;;6.75;2.90;;;;;;;;;;5068765;28;20013;-58
2023/12/31 13:10:14;;;;;;;6.05;2.72;;;;;;;;;;5062613;28;20103;-58
2023/12/31 13:12:39;;;;;;;7.47;2.72;;;;;;;;;;5068302;28;20108;-58
2023/12/31 13:15:04;;;;;;;7.10;2.83;;;;;;;;;;5056049;28;20029;-59
2023/12/31 13:17:30;;;;;;;7.55;3.25;;;;;;;;;;5067091;28;20013;-59
2023/12/31 13:19:55;;;;;;;7.50;2.50;;;;;;;;;;5061424;28;20029;-58
2023/12/31 13:22:20;;;;;;;7.05;2.67;;;;;;;;;;5051292;28;20134;-59
2023/12/31 13:24:45;;;;;;;6.23;3.10;;;;;;;;;;5069250;28;20040;-59
2023/12/31 13:27:12;;;;;;;7.07;3.07;;;;;;;;;;5068253;28;20319;-59
2023/12/31 13:29:37;;;;;;;;;;;;;;;;;;5069327;28;20093;-60
2023/12/31 13:32:03;;;;;;;6.83;2.63;;;;;;;;;;5052792;28;20003;-58
2023/12/31 13:34:28;;;;;;;7.55;3.22;;;;;;;;;;5060747;28;20432;-59
2023/12/31 13:36:53;;;;;;;6.43;2.90;;;;;;;;;;5054601;28;20504;-57
2023/12/31 13:39:18;;;;;;;8.50;3.10;;;;;;;;;;5068015;28;20031;-59
2023/12/31 13:41:44;;;;;;;8.52;3.10;;;;;;;;;;5067834;28;20028;-59
2023/12/31 13:44:09;;;;;;;8.53;3.10;;;;;;;;;;5052422;28;20566;-59
2023/12/31 13:46:35;;;;;;;6.97;2.80;;;;;;;;;;5059141;28;20119;-59
2023/12/31 13:49:00;;;;;;;7.85;3.25;;;;;;;;;;5068178;28;20554;-59
2023/12/31 13:51:25;;;;;;;8.47;3.20;;;;;;;;;;5049982;28;20028;-59
2023/12/31 13:53:51;;;;;;;7.93;3.10;;;;;;;;;;5051219;28;20066;-59
2023/12/31 13:56:16;;;;;;;8.98;3.40;;;;;;;;;;5059986;28;20024;-59
2023/12/31 13:58:41;;;;;;;7.47;3.10;;;;;;;;;;5069143;28;20032;-59
2023/12/31 14:01:06;;;;;;;8.43;3.20;;;;;;;;;;5061414;28;21413;-59
2023/12/31 14:03:32;;;;;;;6.97;3.17;;;;;;;;;;5063840;28;20028;-59
2023/12/31 14:05:57;;;;;;;7.57;3.22;;;;;;;;;;5069912;28;20090;-59
2023/12/31 14:08:22;;;;;;;8.43;3.20;;;;;;;;;;5054477;28;20021;-60
2023/12/31 14:10:49;;;;;;;8.20;3.60;;;;;;;;;;5047851;28;20033;-60
2023/12/31 14:13:14;;;;;;;8.77;3.40;;;;;;;;;;5057433;28;20028;-59
2023/12/31 14:15:40;;;;;;;7.68;3.22;;;;;;;;;;5059790;28;20024;-59
2023/12/31 14:18:05;;;;;;;8.77;2.85;;;;;;;;;;5063463;28;20611;-59
2023/12/31 14:20:30;;;;;;;7.40;3.03;;;;;;;;;;5047543;28;20061;-59
2023/12/31 14:22:56;;;;;;;7.15;3.33;;;;;;;;;;5052279;28;20025;-59
2023/12/31 14:25:21;;;;;;;8.13;3.13;;;;;;;;;;5059897;28;20065;-58
2023/12/31 14:27:46;;;;;;;9.77;3.83;;;;;;;;;;5063563;28;20020;-59
2023/12/31 14:30:12;;;;;;;8.20;3.27;;;;;;;;;;5062160;28;20105;-59